<?xml version="1.0" encoding="UTF-8"?><gpx version="1.1" xmlns:xsd="http://www.w3.org/2001/XMLSchema" xmlns:xsi="http://www.w3.org/2001/XMLSchema-instance" creator="Magellan, Inc. All Rights Reserved. http://www.magellangps.com" xsi:schemaLocation="http://www.topografix.com/GPX/1/1 http://www.topografix.com/GPX/1/1/gpx.xsd http://www.magellangps.com/mgnext/0/2 http://www.magellangps.com/mgnext/0/2/mgn.xsd http://www.groundspeak.com/cache/1/0 http://www.groundspeak.com/cache/1/0/cache.xsd" xmlns="http://www.topografix.com/GPX/1/1">
<trk>
    <name>mottino Wash</name>
    <desc></desc>
    <extensions>
      <mgn:extensions xmlns:mgn="http://www.magellangps.com/mgnext/0/2">
        <mgn:difficulty>3</mgn:difficulty>
        <mgn:rating>5</mgn:rating>
        <mgn:uuid>44309340-b1cc-4678-b395-0818ee3f0b65</mgn:uuid>
        <mgn:proplist>
          <mgn:prop key="Vehicle">3860</mgn:prop>
          <mgn:prop key="WD">Must</mgn:prop>
          <mgn:prop key="LO">Must</mgn:prop>
          <mgn:prop key="DIRT">Loose;</mgn:prop>
          <mgn:prop key="T_MUD"></mgn:prop>
          <mgn:prop key="T_SAND">6-12N</mgn:prop>
          <mgn:prop key="T_SNOW"></mgn:prop>
          <mgn:prop key="T_ROCK">--N</mgn:prop>
          <mgn:prop key="T_WATER"></mgn:prop>
          <mgn:prop key="PITCH">20-30</mgn:prop>
          <mgn:prop key="ROLL">10-20</mgn:prop>
          <mgn:prop key="MAGELLAN_OFFROAD_KEY">0</mgn:prop>
          <mgn:prop key="Author">NotARubicon</mgn:prop>
          <mgn:prop key="InstagramUpdate">True</mgn:prop>
          <mgn:prop key="MaxElevation">1652</mgn:prop>
          <mgn:prop key="MinElevation">1551</mgn:prop>
          <mgn:prop key="ElevationChange">93.10156</mgn:prop>
          <mgn:prop key="RecordedTime">4883</mgn:prop>
          <mgn:prop key="Length">2755.147</mgn:prop>
        </mgn:proplist>
      </mgn:extensions>
    </extensions>

    <trkseg>
      <trkpt lat="34.275342" lon="-116.662896">
        <ele>1558.398438</ele>
        <time>2018-02-10T19:32:15Z</time>
      </trkpt>
      <trkpt lat="34.275384" lon="-116.662787">
        <ele>1557.097656</ele>
        <time>2018-02-10T19:32:30Z</time>
      </trkpt>
      <trkpt lat="34.275385" lon="-116.662769">
        <ele>1556.097656</ele>
        <time>2018-02-10T19:32:35Z</time>
      </trkpt>
      <trkpt lat="34.275382" lon="-116.662635">
        <ele>1556.000000</ele>
        <time>2018-02-10T19:32:38Z</time>
      </trkpt>
      <trkpt lat="34.275417" lon="-116.662421">
        <ele>1555.898438</ele>
        <time>2018-02-10T19:32:47Z</time>
      </trkpt>
      <trkpt lat="34.275423" lon="-116.662312">
        <ele>1555.597656</ele>
        <time>2018-02-10T19:32:52Z</time>
      </trkpt>
      <trkpt lat="34.275421" lon="-116.662291">
        <ele>1556.597656</ele>
        <time>2018-02-10T19:32:57Z</time>
      </trkpt>
      <trkpt lat="34.275412" lon="-116.662191">
        <ele>1556.199219</ele>
        <time>2018-02-10T19:32:58Z</time>
      </trkpt>
      <trkpt lat="34.275413" lon="-116.662176">
        <ele>1555.796875</ele>
        <time>2018-02-10T19:33:05Z</time>
      </trkpt>
      <trkpt lat="34.275405" lon="-116.662075">
        <ele>1555.597656</ele>
        <time>2018-02-10T19:33:06Z</time>
      </trkpt>
      <trkpt lat="34.27539" lon="-116.661966">
        <ele>1556.699219</ele>
        <time>2018-02-10T19:33:14Z</time>
      </trkpt>
      <trkpt lat="34.275385" lon="-116.661952">
        <ele>1556.398438</ele>
        <time>2018-02-10T19:33:21Z</time>
      </trkpt>
      <trkpt lat="34.275361" lon="-116.661854">
        <ele>1556.000000</ele>
        <time>2018-02-10T19:33:22Z</time>
      </trkpt>
      <trkpt lat="34.275356" lon="-116.661833">
        <ele>1555.597656</ele>
        <time>2018-02-10T19:33:27Z</time>
      </trkpt>
      <trkpt lat="34.275331" lon="-116.661678">
        <ele>1556.000000</ele>
        <time>2018-02-10T19:33:30Z</time>
      </trkpt>
      <trkpt lat="34.275327" lon="-116.661649">
        <ele>1556.699219</ele>
        <time>2018-02-10T19:33:34Z</time>
      </trkpt>
      <trkpt lat="34.275328" lon="-116.661554">
        <ele>1556.097656</ele>
        <time>2018-02-10T19:33:38Z</time>
      </trkpt>
      <trkpt lat="34.275323" lon="-116.661538">
        <ele>1553.500000</ele>
        <time>2018-02-10T19:33:46Z</time>
      </trkpt>
      <trkpt lat="34.275316" lon="-116.661439">
        <ele>1553.398438</ele>
        <time>2018-02-10T19:33:47Z</time>
      </trkpt>
      <trkpt lat="34.275317" lon="-116.661426">
        <ele>1551.898438</ele>
        <time>2018-02-10T19:33:56Z</time>
      </trkpt>
      <trkpt lat="34.275316" lon="-116.661329">
        <ele>1552.597656</ele>
        <time>2018-02-10T19:33:57Z</time>
      </trkpt>
      <trkpt lat="34.275323" lon="-116.661317">
        <ele>1555.398438</ele>
        <time>2018-02-10T19:34:05Z</time>
      </trkpt>
      <trkpt lat="34.275366" lon="-116.661236">
        <ele>1555.199219</ele>
        <time>2018-02-10T19:34:06Z</time>
      </trkpt>
      <trkpt lat="34.27537" lon="-116.661223">
        <ele>1558.199219</ele>
        <time>2018-02-10T19:34:13Z</time>
      </trkpt>
      <trkpt lat="34.275374" lon="-116.66112">
        <ele>1558.097656</ele>
        <time>2018-02-10T19:34:14Z</time>
      </trkpt>
      <trkpt lat="34.275371" lon="-116.661109">
        <ele>1561.597656</ele>
        <time>2018-02-10T19:34:24Z</time>
      </trkpt>
      <trkpt lat="34.275351" lon="-116.661011">
        <ele>1561.796875</ele>
        <time>2018-02-10T19:34:25Z</time>
      </trkpt>
      <trkpt lat="34.275344" lon="-116.661">
        <ele>1564.699219</ele>
        <time>2018-02-10T19:34:36Z</time>
      </trkpt>
      <trkpt lat="34.275267" lon="-116.660957">
        <ele>1564.796875</ele>
        <time>2018-02-10T19:34:37Z</time>
      </trkpt>
      <trkpt lat="34.275262" lon="-116.660955">
        <ele>1566.398438</ele>
        <time>2018-02-10T19:34:51Z</time>
      </trkpt>
      <trkpt lat="34.275178" lon="-116.660939">
        <ele>1566.597656</ele>
        <time>2018-02-10T19:34:52Z</time>
      </trkpt>
      <trkpt lat="34.275171" lon="-116.660939">
        <ele>1562.199219</ele>
        <time>2018-02-10T19:35:20Z</time>
      </trkpt>
      <trkpt lat="34.275086" lon="-116.660947">
        <ele>1561.898438</ele>
        <time>2018-02-10T19:35:23Z</time>
      </trkpt>
      <trkpt lat="34.27508" lon="-116.66095">
        <ele>1563.898438</ele>
        <time>2018-02-10T19:35:40Z</time>
      </trkpt>
      <trkpt lat="34.275015" lon="-116.661024">
        <ele>1564.097656</ele>
        <time>2018-02-10T19:35:41Z</time>
      </trkpt>
      <trkpt lat="34.275009" lon="-116.661026">
        <ele>1566.000000</ele>
        <time>2018-02-10T19:36:25Z</time>
      </trkpt>
      <trkpt lat="34.274948" lon="-116.661106">
        <ele>1565.699219</ele>
        <time>2018-02-10T19:36:26Z</time>
      </trkpt>
      <trkpt lat="34.274942" lon="-116.661113">
        <ele>1564.000000</ele>
        <time>2018-02-10T19:36:35Z</time>
      </trkpt>
      <trkpt lat="34.274904" lon="-116.661206">
        <ele>1564.796875</ele>
        <time>2018-02-10T19:36:36Z</time>
      </trkpt>
      <trkpt lat="34.274897" lon="-116.661216">
        <ele>1562.097656</ele>
        <time>2018-02-10T19:36:46Z</time>
      </trkpt>
      <trkpt lat="34.274845" lon="-116.66131">
        <ele>1563.199219</ele>
        <time>2018-02-10T19:36:48Z</time>
      </trkpt>
      <trkpt lat="34.274842" lon="-116.661321">
        <ele>1560.597656</ele>
        <time>2018-02-10T19:38:16Z</time>
      </trkpt>
      <trkpt lat="34.27476" lon="-116.661351">
        <ele>1559.398438</ele>
        <time>2018-02-10T19:38:18Z</time>
      </trkpt>
      <trkpt lat="34.274754" lon="-116.661355">
        <ele>1562.296875</ele>
        <time>2018-02-10T19:39:23Z</time>
      </trkpt>
      <trkpt lat="34.27467" lon="-116.661371">
        <ele>1563.199219</ele>
        <time>2018-02-10T19:39:25Z</time>
      </trkpt>
      <trkpt lat="34.274658" lon="-116.661366">
        <ele>1562.398438</ele>
        <time>2018-02-10T19:39:39Z</time>
      </trkpt>
      <trkpt lat="34.274582" lon="-116.661344">
        <ele>1562.398438</ele>
        <time>2018-02-10T19:39:42Z</time>
      </trkpt>
      <trkpt lat="34.274566" lon="-116.661331">
        <ele>1562.796875</ele>
        <time>2018-02-10T19:39:55Z</time>
      </trkpt>
      <trkpt lat="34.274491" lon="-116.66133">
        <ele>1560.398438</ele>
        <time>2018-02-10T19:40:01Z</time>
      </trkpt>
      <trkpt lat="34.274522" lon="-116.661313">
        <ele>1564.597656</ele>
        <time>2018-02-10T19:41:48Z</time>
      </trkpt>
      <trkpt lat="34.274522" lon="-116.661313">
        <ele>1564.597656</ele>
        <time>2018-02-10T19:41:48Z</time>
      </trkpt>
    </trkseg>
    <trkseg>
      <trkpt lat="34.274455" lon="-116.661193">
        <ele>1565.597656</ele>
        <time>2018-02-10T19:57:03Z</time>
      </trkpt>
      <trkpt lat="34.274376" lon="-116.661136">
        <ele>1570.398438</ele>
        <time>2018-02-10T19:58:47Z</time>
      </trkpt>
      <trkpt lat="34.274362" lon="-116.661144">
        <ele>1563.097656</ele>
        <time>2018-02-10T19:59:07Z</time>
      </trkpt>
      <trkpt lat="34.274362" lon="-116.661144">
        <ele>1563.097656</ele>
        <time>2018-02-10T19:59:07Z</time>
      </trkpt>
    </trkseg>
    <trkseg>
      <trkpt lat="34.27437" lon="-116.661052">
        <ele>1570.699219</ele>
        <time>2018-02-10T20:04:03Z</time>
      </trkpt>
      <trkpt lat="34.274353" lon="-116.660944">
        <ele>1564.296875</ele>
        <time>2018-02-10T20:05:36Z</time>
      </trkpt>
      <trkpt lat="34.274355" lon="-116.66094">
        <ele>1574.699219</ele>
        <time>2018-02-10T20:06:01Z</time>
      </trkpt>
      <trkpt lat="34.274385" lon="-116.660839">
        <ele>1575.796875</ele>
        <time>2018-02-10T20:06:02Z</time>
      </trkpt>
      <trkpt lat="34.274384" lon="-116.660835">
        <ele>1579.500000</ele>
        <time>2018-02-10T20:07:27Z</time>
      </trkpt>
      <trkpt lat="34.274371" lon="-116.66073">
        <ele>1580.398438</ele>
        <time>2018-02-10T20:07:30Z</time>
      </trkpt>
      <trkpt lat="34.274373" lon="-116.660734">
        <ele>1585.699219</ele>
        <time>2018-02-10T20:07:57Z</time>
      </trkpt>
      <trkpt lat="34.274373" lon="-116.660734">
        <ele>1585.699219</ele>
        <time>2018-02-10T20:07:57Z</time>
      </trkpt>
    </trkseg>
    <trkseg>
      <trkpt lat="34.274414" lon="-116.660706">
        <ele>1567.296875</ele>
        <time>2018-02-10T20:31:53Z</time>
      </trkpt>
      <trkpt lat="34.274407" lon="-116.660594">
        <ele>1572.199219</ele>
        <time>2018-02-10T20:32:05Z</time>
      </trkpt>
      <trkpt lat="34.274401" lon="-116.66057">
        <ele>1571.398438</ele>
        <time>2018-02-10T20:32:08Z</time>
      </trkpt>
      <trkpt lat="34.274368" lon="-116.660476">
        <ele>1571.796875</ele>
        <time>2018-02-10T20:32:09Z</time>
      </trkpt>
      <trkpt lat="34.274364" lon="-116.66045">
        <ele>1572.097656</ele>
        <time>2018-02-10T20:32:31Z</time>
      </trkpt>
      <trkpt lat="34.27439" lon="-116.66037">
        <ele>1557.097656</ele>
        <time>2018-02-10T20:33:55Z</time>
      </trkpt>
      <trkpt lat="34.274399" lon="-116.660334">
        <ele>1558.199219</ele>
        <time>2018-02-10T20:34:13Z</time>
      </trkpt>
      <trkpt lat="34.274399" lon="-116.660334">
        <ele>1558.199219</ele>
        <time>2018-02-10T20:34:13Z</time>
      </trkpt>
    </trkseg>
    <trkseg>
      <trkpt lat="34.274405" lon="-116.660245">
        <ele>1571.199219</ele>
        <time>2018-02-10T21:25:23Z</time>
      </trkpt>
      <trkpt lat="34.274403" lon="-116.660116">
        <ele>1573.097656</ele>
        <time>2018-02-10T21:26:08Z</time>
      </trkpt>
      <trkpt lat="34.274406" lon="-116.660107">
        <ele>1577.398438</ele>
        <time>2018-02-10T21:26:35Z</time>
      </trkpt>
      <trkpt lat="34.274412" lon="-116.660007">
        <ele>1577.699219</ele>
        <time>2018-02-10T21:26:41Z</time>
      </trkpt>
      <trkpt lat="34.274411" lon="-116.659995">
        <ele>1576.296875</ele>
        <time>2018-02-10T21:27:15Z</time>
      </trkpt>
      <trkpt lat="34.274428" lon="-116.659875">
        <ele>1576.398438</ele>
        <time>2018-02-10T21:27:18Z</time>
      </trkpt>
      <trkpt lat="34.274429" lon="-116.659865">
        <ele>1574.597656</ele>
        <time>2018-02-10T21:27:40Z</time>
      </trkpt>
      <trkpt lat="34.274454" lon="-116.65977">
        <ele>1574.398438</ele>
        <time>2018-02-10T21:27:41Z</time>
      </trkpt>
      <trkpt lat="34.274451" lon="-116.659758">
        <ele>1574.097656</ele>
        <time>2018-02-10T21:27:52Z</time>
      </trkpt>
      <trkpt lat="34.274402" lon="-116.659678">
        <ele>1574.000000</ele>
        <time>2018-02-10T21:27:53Z</time>
      </trkpt>
      <trkpt lat="34.274395" lon="-116.659672">
        <ele>1573.097656</ele>
        <time>2018-02-10T21:28:01Z</time>
      </trkpt>
      <trkpt lat="34.27432" lon="-116.659625">
        <ele>1573.597656</ele>
        <time>2018-02-10T21:28:02Z</time>
      </trkpt>
      <trkpt lat="34.274309" lon="-116.65962">
        <ele>1571.199219</ele>
        <time>2018-02-10T21:28:29Z</time>
      </trkpt>
      <trkpt lat="34.274242" lon="-116.659565">
        <ele>1571.500000</ele>
        <time>2018-02-10T21:28:33Z</time>
      </trkpt>
      <trkpt lat="34.274231" lon="-116.659553">
        <ele>1578.699219</ele>
        <time>2018-02-10T21:29:13Z</time>
      </trkpt>
      <trkpt lat="34.274164" lon="-116.659511">
        <ele>1579.097656</ele>
        <time>2018-02-10T21:29:25Z</time>
      </trkpt>
      <trkpt lat="34.274143" lon="-116.659515">
        <ele>1576.597656</ele>
        <time>2018-02-10T21:29:41Z</time>
      </trkpt>
      <trkpt lat="34.274078" lon="-116.659561">
        <ele>1576.199219</ele>
        <time>2018-02-10T21:29:45Z</time>
      </trkpt>
      <trkpt lat="34.274058" lon="-116.659568">
        <ele>1579.097656</ele>
        <time>2018-02-10T21:29:58Z</time>
      </trkpt>
      <trkpt lat="34.273984" lon="-116.659567">
        <ele>1578.796875</ele>
        <time>2018-02-10T21:30:01Z</time>
      </trkpt>
      <trkpt lat="34.273967" lon="-116.659564">
        <ele>1578.398438</ele>
        <time>2018-02-10T21:30:16Z</time>
      </trkpt>
      <trkpt lat="34.273896" lon="-116.659608">
        <ele>1579.000000</ele>
        <time>2018-02-10T21:30:18Z</time>
      </trkpt>
      <trkpt lat="34.273887" lon="-116.659621">
        <ele>1579.898438</ele>
        <time>2018-02-10T21:32:11Z</time>
      </trkpt>
      <trkpt lat="34.273819" lon="-116.659675">
        <ele>1582.296875</ele>
        <time>2018-02-10T21:32:14Z</time>
      </trkpt>
      <trkpt lat="34.273748" lon="-116.65971">
        <ele>1577.796875</ele>
        <time>2018-02-10T21:32:27Z</time>
      </trkpt>
      <trkpt lat="34.273748" lon="-116.65971">
        <ele>1577.796875</ele>
        <time>2018-02-10T21:32:27Z</time>
      </trkpt>
    </trkseg>
    <trkseg>
      <trkpt lat="34.273708" lon="-116.659748">
        <ele>1577.000000</ele>
        <time>2018-02-10T21:33:13Z</time>
      </trkpt>
      <trkpt lat="34.273691" lon="-116.659734">
        <ele>1578.000000</ele>
        <time>2018-02-10T21:35:17Z</time>
      </trkpt>
      <trkpt lat="34.273691" lon="-116.659734">
        <ele>1578.000000</ele>
        <time>2018-02-10T21:35:17Z</time>
      </trkpt>
    </trkseg>
    <trkseg>
      <trkpt lat="34.273532" lon="-116.659764">
        <ele>1580.500000</ele>
        <time>2018-02-10T21:36:43Z</time>
      </trkpt>
      <trkpt lat="34.273459" lon="-116.659688">
        <ele>1579.296875</ele>
        <time>2018-02-10T21:37:25Z</time>
      </trkpt>
      <trkpt lat="34.273458" lon="-116.659688">
        <ele>1582.597656</ele>
        <time>2018-02-10T21:38:00Z</time>
      </trkpt>
      <trkpt lat="34.273401" lon="-116.659603">
        <ele>1581.898438</ele>
        <time>2018-02-10T21:38:01Z</time>
      </trkpt>
      <trkpt lat="34.2734" lon="-116.659603">
        <ele>1581.796875</ele>
        <time>2018-02-10T21:38:14Z</time>
      </trkpt>
      <trkpt lat="34.273325" lon="-116.659525">
        <ele>1582.000000</ele>
        <time>2018-02-10T21:38:15Z</time>
      </trkpt>
      <trkpt lat="34.273291" lon="-116.659517">
        <ele>1583.500000</ele>
        <time>2018-02-10T21:40:27Z</time>
      </trkpt>
      <trkpt lat="34.273291" lon="-116.659517">
        <ele>1583.500000</ele>
        <time>2018-02-10T21:40:27Z</time>
      </trkpt>
    </trkseg>
    <trkseg>
      <trkpt lat="34.273225" lon="-116.659355">
        <ele>1584.597656</ele>
        <time>2018-02-10T21:53:33Z</time>
      </trkpt>
      <trkpt lat="34.273126" lon="-116.659274">
        <ele>1586.097656</ele>
        <time>2018-02-10T21:54:03Z</time>
      </trkpt>
      <trkpt lat="34.273077" lon="-116.659206">
        <ele>1582.296875</ele>
        <time>2018-02-10T21:56:18Z</time>
      </trkpt>
      <trkpt lat="34.273077" lon="-116.659206">
        <ele>1582.296875</ele>
        <time>2018-02-10T21:56:18Z</time>
      </trkpt>
    </trkseg>
    <trkseg>
      <trkpt lat="34.273052" lon="-116.659095">
        <ele>1585.097656</ele>
        <time>2018-02-10T21:58:23Z</time>
      </trkpt>
      <trkpt lat="34.273074" lon="-116.658983">
        <ele>1583.199219</ele>
        <time>2018-02-10T21:58:35Z</time>
      </trkpt>
      <trkpt lat="34.27308" lon="-116.658963">
        <ele>1584.296875</ele>
        <time>2018-02-10T21:58:39Z</time>
      </trkpt>
      <trkpt lat="34.273136" lon="-116.658892">
        <ele>1584.699219</ele>
        <time>2018-02-10T21:58:40Z</time>
      </trkpt>
      <trkpt lat="34.273153" lon="-116.658871">
        <ele>1588.898438</ele>
        <time>2018-02-10T21:58:55Z</time>
      </trkpt>
      <trkpt lat="34.273214" lon="-116.658835">
        <ele>1578.699219</ele>
        <time>2018-02-10T21:59:46Z</time>
      </trkpt>
      <trkpt lat="34.273202" lon="-116.658793">
        <ele>1579.398438</ele>
        <time>2018-02-10T22:00:48Z</time>
      </trkpt>
      <trkpt lat="34.273202" lon="-116.658793">
        <ele>1579.398438</ele>
        <time>2018-02-10T22:00:48Z</time>
      </trkpt>
    </trkseg>
    <trkseg>
      <trkpt lat="34.273332" lon="-116.658755">
        <ele>1584.097656</ele>
        <time>2018-02-10T22:08:13Z</time>
      </trkpt>
      <trkpt lat="34.273408" lon="-116.658656">
        <ele>1588.398438</ele>
        <time>2018-02-10T22:08:42Z</time>
      </trkpt>
      <trkpt lat="34.273418" lon="-116.658649">
        <ele>1592.699219</ele>
        <time>2018-02-10T22:09:34Z</time>
      </trkpt>
      <trkpt lat="34.273464" lon="-116.658564">
        <ele>1592.199219</ele>
        <time>2018-02-10T22:09:35Z</time>
      </trkpt>
      <trkpt lat="34.273443" lon="-116.658529">
        <ele>1597.296875</ele>
        <time>2018-02-10T22:10:57Z</time>
      </trkpt>
      <trkpt lat="34.273443" lon="-116.658529">
        <ele>1597.296875</ele>
        <time>2018-02-10T22:10:57Z</time>
      </trkpt>
    </trkseg>
    <trkseg>
      <trkpt lat="34.273475" lon="-116.658435">
        <ele>1591.097656</ele>
        <time>2018-02-10T22:11:43Z</time>
      </trkpt>
      <trkpt lat="34.273381" lon="-116.658363">
        <ele>1587.296875</ele>
        <time>2018-02-10T22:12:55Z</time>
      </trkpt>
      <trkpt lat="34.273373" lon="-116.658356">
        <ele>1585.597656</ele>
        <time>2018-02-10T22:13:40Z</time>
      </trkpt>
      <trkpt lat="34.273291" lon="-116.658331">
        <ele>1585.597656</ele>
        <time>2018-02-10T22:13:41Z</time>
      </trkpt>
      <trkpt lat="34.273278" lon="-116.658323">
        <ele>1585.296875</ele>
        <time>2018-02-10T22:13:45Z</time>
      </trkpt>
      <trkpt lat="34.273162" lon="-116.658269">
        <ele>1584.398438</ele>
        <time>2018-02-10T22:13:49Z</time>
      </trkpt>
      <trkpt lat="34.273153" lon="-116.658259">
        <ele>1585.398438</ele>
        <time>2018-02-10T22:13:55Z</time>
      </trkpt>
      <trkpt lat="34.273056" lon="-116.658185">
        <ele>1585.296875</ele>
        <time>2018-02-10T22:13:59Z</time>
      </trkpt>
      <trkpt lat="34.273053" lon="-116.658183">
        <ele>1591.699219</ele>
        <time>2018-02-10T22:14:30Z</time>
      </trkpt>
      <trkpt lat="34.27297" lon="-116.658136">
        <ele>1591.500000</ele>
        <time>2018-02-10T22:14:31Z</time>
      </trkpt>
      <trkpt lat="34.272963" lon="-116.658137">
        <ele>1590.398438</ele>
        <time>2018-02-10T22:14:53Z</time>
      </trkpt>
      <trkpt lat="34.27287" lon="-116.658145">
        <ele>1590.898438</ele>
        <time>2018-02-10T22:14:55Z</time>
      </trkpt>
      <trkpt lat="34.272866" lon="-116.658147">
        <ele>1591.597656</ele>
        <time>2018-02-10T22:15:41Z</time>
      </trkpt>
      <trkpt lat="34.272782" lon="-116.658106">
        <ele>1591.597656</ele>
        <time>2018-02-10T22:15:42Z</time>
      </trkpt>
      <trkpt lat="34.272775" lon="-116.658106">
        <ele>1594.199219</ele>
        <time>2018-02-10T22:15:50Z</time>
      </trkpt>
      <trkpt lat="34.272691" lon="-116.658076">
        <ele>1594.296875</ele>
        <time>2018-02-10T22:15:51Z</time>
      </trkpt>
      <trkpt lat="34.272681" lon="-116.658075">
        <ele>1595.296875</ele>
        <time>2018-02-10T22:15:59Z</time>
      </trkpt>
      <trkpt lat="34.272597" lon="-116.658087">
        <ele>1595.500000</ele>
        <time>2018-02-10T22:16:00Z</time>
      </trkpt>
      <trkpt lat="34.27259" lon="-116.658091">
        <ele>1595.199219</ele>
        <time>2018-02-10T22:16:09Z</time>
      </trkpt>
      <trkpt lat="34.272497" lon="-116.658131">
        <ele>1595.796875</ele>
        <time>2018-02-10T22:16:11Z</time>
      </trkpt>
      <trkpt lat="34.272485" lon="-116.658131">
        <ele>1594.500000</ele>
        <time>2018-02-10T22:16:20Z</time>
      </trkpt>
      <trkpt lat="34.272417" lon="-116.658061">
        <ele>1595.699219</ele>
        <time>2018-02-10T22:16:21Z</time>
      </trkpt>
      <trkpt lat="34.272413" lon="-116.658052">
        <ele>1596.699219</ele>
        <time>2018-02-10T22:16:28Z</time>
      </trkpt>
      <trkpt lat="34.272342" lon="-116.657966">
        <ele>1597.097656</ele>
        <time>2018-02-10T22:16:30Z</time>
      </trkpt>
      <trkpt lat="34.272332" lon="-116.657953">
        <ele>1598.000000</ele>
        <time>2018-02-10T22:16:34Z</time>
      </trkpt>
      <trkpt lat="34.272286" lon="-116.657868">
        <ele>1598.398438</ele>
        <time>2018-02-10T22:16:35Z</time>
      </trkpt>
      <trkpt lat="34.27228" lon="-116.657842">
        <ele>1598.898438</ele>
        <time>2018-02-10T22:16:39Z</time>
      </trkpt>
      <trkpt lat="34.272247" lon="-116.657748">
        <ele>1598.500000</ele>
        <time>2018-02-10T22:16:40Z</time>
      </trkpt>
      <trkpt lat="34.272193" lon="-116.657591">
        <ele>1598.699219</ele>
        <time>2018-02-10T22:16:49Z</time>
      </trkpt>
      <trkpt lat="34.272193" lon="-116.657591">
        <ele>1606.796875</ele>
        <time>2018-02-10T22:17:31Z</time>
      </trkpt>
      <trkpt lat="34.272155" lon="-116.65747">
        <ele>1606.597656</ele>
        <time>2018-02-10T22:17:32Z</time>
      </trkpt>
      <trkpt lat="34.272148" lon="-116.657448">
        <ele>1604.699219</ele>
        <time>2018-02-10T22:17:36Z</time>
      </trkpt>
      <trkpt lat="34.272101" lon="-116.657338">
        <ele>1604.898438</ele>
        <time>2018-02-10T22:17:38Z</time>
      </trkpt>
      <trkpt lat="34.272096" lon="-116.657315">
        <ele>1603.796875</ele>
        <time>2018-02-10T22:17:42Z</time>
      </trkpt>
      <trkpt lat="34.27207" lon="-116.657198">
        <ele>1603.398438</ele>
        <time>2018-02-10T22:17:44Z</time>
      </trkpt>
      <trkpt lat="34.272032" lon="-116.657082">
        <ele>1601.097656</ele>
        <time>2018-02-10T22:17:50Z</time>
      </trkpt>
      <trkpt lat="34.272022" lon="-116.657058">
        <ele>1603.097656</ele>
        <time>2018-02-10T22:17:53Z</time>
      </trkpt>
      <trkpt lat="34.271987" lon="-116.656974">
        <ele>1602.500000</ele>
        <time>2018-02-10T22:17:54Z</time>
      </trkpt>
      <trkpt lat="34.271974" lon="-116.656952">
        <ele>1600.500000</ele>
        <time>2018-02-10T22:17:58Z</time>
      </trkpt>
      <trkpt lat="34.271935" lon="-116.656879">
        <ele>1600.296875</ele>
        <time>2018-02-10T22:17:59Z</time>
      </trkpt>
      <trkpt lat="34.271888" lon="-116.656776">
        <ele>1600.699219</ele>
        <time>2018-02-10T22:18:06Z</time>
      </trkpt>
      <trkpt lat="34.271883" lon="-116.65676">
        <ele>1600.398438</ele>
        <time>2018-02-10T22:18:14Z</time>
      </trkpt>
      <trkpt lat="34.271837" lon="-116.656683">
        <ele>1600.398438</ele>
        <time>2018-02-10T22:18:16Z</time>
      </trkpt>
      <trkpt lat="34.271831" lon="-116.656659">
        <ele>1601.699219</ele>
        <time>2018-02-10T22:18:22Z</time>
      </trkpt>
      <trkpt lat="34.271791" lon="-116.656575">
        <ele>1601.898438</ele>
        <time>2018-02-10T22:18:23Z</time>
      </trkpt>
      <trkpt lat="34.271781" lon="-116.656566">
        <ele>1601.097656</ele>
        <time>2018-02-10T22:18:30Z</time>
      </trkpt>
      <trkpt lat="34.271727" lon="-116.656484">
        <ele>1600.597656</ele>
        <time>2018-02-10T22:18:31Z</time>
      </trkpt>
      <trkpt lat="34.271663" lon="-116.656467">
        <ele>1596.597656</ele>
        <time>2018-02-10T22:20:37Z</time>
      </trkpt>
      <trkpt lat="34.271663" lon="-116.656467">
        <ele>1596.597656</ele>
        <time>2018-02-10T22:20:37Z</time>
      </trkpt>
    </trkseg>
    <trkseg>
      <trkpt lat="34.271624" lon="-116.656358">
        <ele>1598.699219</ele>
        <time>2018-02-10T22:21:13Z</time>
      </trkpt>
      <trkpt lat="34.271583" lon="-116.656245">
        <ele>1598.500000</ele>
        <time>2018-02-10T22:21:52Z</time>
      </trkpt>
      <trkpt lat="34.271583" lon="-116.656235">
        <ele>1599.097656</ele>
        <time>2018-02-10T22:22:00Z</time>
      </trkpt>
      <trkpt lat="34.271506" lon="-116.656186">
        <ele>1599.199219</ele>
        <time>2018-02-10T22:22:01Z</time>
      </trkpt>
      <trkpt lat="34.271499" lon="-116.656181">
        <ele>1599.500000</ele>
        <time>2018-02-10T22:22:08Z</time>
      </trkpt>
      <trkpt lat="34.271438" lon="-116.656113">
        <ele>1599.398438</ele>
        <time>2018-02-10T22:22:10Z</time>
      </trkpt>
      <trkpt lat="34.271402" lon="-116.656042">
        <ele>1603.500000</ele>
        <time>2018-02-10T22:24:07Z</time>
      </trkpt>
      <trkpt lat="34.271402" lon="-116.656042">
        <ele>1603.500000</ele>
        <time>2018-02-10T22:24:07Z</time>
      </trkpt>
    </trkseg>
    <trkseg>
      <trkpt lat="34.271336" lon="-116.655956">
        <ele>1602.398438</ele>
        <time>2018-02-10T22:28:53Z</time>
      </trkpt>
      <trkpt lat="34.271332" lon="-116.655831">
        <ele>1602.597656</ele>
        <time>2018-02-10T22:29:29Z</time>
      </trkpt>
      <trkpt lat="34.27133" lon="-116.65583">
        <ele>1602.898438</ele>
        <time>2018-02-10T22:29:53Z</time>
      </trkpt>
      <trkpt lat="34.271291" lon="-116.655729">
        <ele>1602.500000</ele>
        <time>2018-02-10T22:29:54Z</time>
      </trkpt>
      <trkpt lat="34.271285" lon="-116.655717">
        <ele>1595.296875</ele>
        <time>2018-02-10T22:31:45Z</time>
      </trkpt>
      <trkpt lat="34.27124" lon="-116.655638">
        <ele>1595.898438</ele>
        <time>2018-02-10T22:31:47Z</time>
      </trkpt>
      <trkpt lat="34.271225" lon="-116.655617">
        <ele>1596.699219</ele>
        <time>2018-02-10T22:31:49Z</time>
      </trkpt>
      <trkpt lat="34.271225" lon="-116.655617">
        <ele>1596.699219</ele>
        <time>2018-02-10T22:31:49Z</time>
      </trkpt>
    </trkseg>
    <trkseg>
      <trkpt lat="34.271197" lon="-116.655596">
        <ele>1602.000000</ele>
        <time>2018-02-10T22:32:03Z</time>
      </trkpt>
      <trkpt lat="34.271199" lon="-116.65547">
        <ele>1607.796875</ele>
        <time>2018-02-10T22:33:34Z</time>
      </trkpt>
      <trkpt lat="34.271197" lon="-116.655458">
        <ele>1606.597656</ele>
        <time>2018-02-10T22:33:43Z</time>
      </trkpt>
      <trkpt lat="34.271165" lon="-116.655362">
        <ele>1606.199219</ele>
        <time>2018-02-10T22:33:44Z</time>
      </trkpt>
      <trkpt lat="34.271158" lon="-116.655347">
        <ele>1606.796875</ele>
        <time>2018-02-10T22:33:49Z</time>
      </trkpt>
      <trkpt lat="34.271116" lon="-116.655258">
        <ele>1607.097656</ele>
        <time>2018-02-10T22:33:50Z</time>
      </trkpt>
      <trkpt lat="34.271116" lon="-116.65518">
        <ele>1590.000000</ele>
        <time>2018-02-10T22:35:48Z</time>
      </trkpt>
      <trkpt lat="34.271116" lon="-116.65518">
        <ele>1590.000000</ele>
        <time>2018-02-10T22:35:48Z</time>
      </trkpt>
    </trkseg>
    <trkseg>
      <trkpt lat="34.271138" lon="-116.655131">
        <ele>1598.296875</ele>
        <time>2018-02-10T22:38:03Z</time>
      </trkpt>
      <trkpt lat="34.27113" lon="-116.655186">
        <ele>1600.500000</ele>
        <time>2018-02-10T22:40:07Z</time>
      </trkpt>
      <trkpt lat="34.27113" lon="-116.655186">
        <ele>1600.500000</ele>
        <time>2018-02-10T22:40:07Z</time>
      </trkpt>
    </trkseg>
    <trkseg>
      <trkpt lat="34.270989" lon="-116.655066">
        <ele>1601.898438</ele>
        <time>2018-02-10T22:52:23Z</time>
      </trkpt>
      <trkpt lat="34.270969" lon="-116.655066">
        <ele>1594.699219</ele>
        <time>2018-02-10T22:54:27Z</time>
      </trkpt>
      <trkpt lat="34.270969" lon="-116.655066">
        <ele>1594.699219</ele>
        <time>2018-02-10T22:54:27Z</time>
      </trkpt>
    </trkseg>
    <trkseg>
      <trkpt lat="34.270869" lon="-116.65497">
        <ele>1605.097656</ele>
        <time>2018-02-10T22:57:03Z</time>
      </trkpt>
      <trkpt lat="34.270777" lon="-116.654981">
        <ele>1603.898438</ele>
        <time>2018-02-10T22:58:05Z</time>
      </trkpt>
      <trkpt lat="34.270773" lon="-116.654989">
        <ele>1602.398438</ele>
        <time>2018-02-10T22:58:14Z</time>
      </trkpt>
      <trkpt lat="34.270701" lon="-116.655043">
        <ele>1600.500000</ele>
        <time>2018-02-10T22:58:15Z</time>
      </trkpt>
      <trkpt lat="34.270693" lon="-116.65505">
        <ele>1603.699219</ele>
        <time>2018-02-10T22:58:23Z</time>
      </trkpt>
      <trkpt lat="34.270628" lon="-116.655112">
        <ele>1602.898438</ele>
        <time>2018-02-10T22:58:24Z</time>
      </trkpt>
      <trkpt lat="34.27062" lon="-116.655116">
        <ele>1600.199219</ele>
        <time>2018-02-10T22:58:32Z</time>
      </trkpt>
      <trkpt lat="34.270549" lon="-116.65517">
        <ele>1599.796875</ele>
        <time>2018-02-10T22:58:33Z</time>
      </trkpt>
      <trkpt lat="34.270538" lon="-116.655182">
        <ele>1601.898438</ele>
        <time>2018-02-10T22:58:57Z</time>
      </trkpt>
      <trkpt lat="34.270476" lon="-116.655248">
        <ele>1601.699219</ele>
        <time>2018-02-10T22:58:58Z</time>
      </trkpt>
      <trkpt lat="34.270466" lon="-116.655253">
        <ele>1602.500000</ele>
        <time>2018-02-10T22:59:08Z</time>
      </trkpt>
      <trkpt lat="34.270359" lon="-116.65527">
        <ele>1602.898438</ele>
        <time>2018-02-10T22:59:12Z</time>
      </trkpt>
      <trkpt lat="34.270351" lon="-116.655268">
        <ele>1599.796875</ele>
        <time>2018-02-10T22:59:26Z</time>
      </trkpt>
      <trkpt lat="34.270265" lon="-116.65526">
        <ele>1600.000000</ele>
        <time>2018-02-10T22:59:27Z</time>
      </trkpt>
      <trkpt lat="34.270259" lon="-116.655249">
        <ele>1606.898438</ele>
        <time>2018-02-10T22:59:39Z</time>
      </trkpt>
      <trkpt lat="34.2702" lon="-116.655174">
        <ele>1606.699219</ele>
        <time>2018-02-10T22:59:40Z</time>
      </trkpt>
      <trkpt lat="34.270196" lon="-116.655165">
        <ele>1609.796875</ele>
        <time>2018-02-10T22:59:54Z</time>
      </trkpt>
      <trkpt lat="34.27016" lon="-116.655071">
        <ele>1610.000000</ele>
        <time>2018-02-10T22:59:55Z</time>
      </trkpt>
      <trkpt lat="34.270159" lon="-116.655065">
        <ele>1612.097656</ele>
        <time>2018-02-10T23:00:06Z</time>
      </trkpt>
      <trkpt lat="34.270091" lon="-116.654989">
        <ele>1612.199219</ele>
        <time>2018-02-10T23:00:07Z</time>
      </trkpt>
      <trkpt lat="34.270082" lon="-116.654982">
        <ele>1612.000000</ele>
        <time>2018-02-10T23:00:18Z</time>
      </trkpt>
      <trkpt lat="34.270025" lon="-116.654905">
        <ele>1612.000000</ele>
        <time>2018-02-10T23:00:19Z</time>
      </trkpt>
      <trkpt lat="34.270017" lon="-116.6549">
        <ele>1612.898438</ele>
        <time>2018-02-10T23:00:29Z</time>
      </trkpt>
      <trkpt lat="34.26998" lon="-116.654807">
        <ele>1612.898438</ele>
        <time>2018-02-10T23:00:30Z</time>
      </trkpt>
      <trkpt lat="34.269975" lon="-116.654797">
        <ele>1612.000000</ele>
        <time>2018-02-10T23:00:39Z</time>
      </trkpt>
      <trkpt lat="34.269926" lon="-116.654713">
        <ele>1612.398438</ele>
        <time>2018-02-10T23:00:40Z</time>
      </trkpt>
      <trkpt lat="34.269924" lon="-116.6547">
        <ele>1612.597656</ele>
        <time>2018-02-10T23:00:47Z</time>
      </trkpt>
      <trkpt lat="34.269904" lon="-116.654575">
        <ele>1612.898438</ele>
        <time>2018-02-10T23:00:49Z</time>
      </trkpt>
      <trkpt lat="34.269903" lon="-116.654554">
        <ele>1612.699219</ele>
        <time>2018-02-10T23:00:54Z</time>
      </trkpt>
      <trkpt lat="34.269913" lon="-116.65433">
        <ele>1613.296875</ele>
        <time>2018-02-10T23:01:00Z</time>
      </trkpt>
      <trkpt lat="34.269916" lon="-116.654306">
        <ele>1614.199219</ele>
        <time>2018-02-10T23:01:04Z</time>
      </trkpt>
      <trkpt lat="34.269929" lon="-116.654202">
        <ele>1614.296875</ele>
        <time>2018-02-10T23:01:05Z</time>
      </trkpt>
      <trkpt lat="34.269925" lon="-116.654171">
        <ele>1614.398438</ele>
        <time>2018-02-10T23:01:08Z</time>
      </trkpt>
      <trkpt lat="34.269907" lon="-116.65409">
        <ele>1614.398438</ele>
        <time>2018-02-10T23:01:10Z</time>
      </trkpt>
      <trkpt lat="34.269899" lon="-116.654049">
        <ele>1615.796875</ele>
        <time>2018-02-10T23:01:14Z</time>
      </trkpt>
      <trkpt lat="34.269895" lon="-116.653976">
        <ele>1616.500000</ele>
        <time>2018-02-10T23:01:17Z</time>
      </trkpt>
      <trkpt lat="34.269886" lon="-116.653924">
        <ele>1616.796875</ele>
        <time>2018-02-10T23:01:20Z</time>
      </trkpt>
      <trkpt lat="34.269883" lon="-116.653865">
        <ele>1616.898438</ele>
        <time>2018-02-10T23:01:23Z</time>
      </trkpt>
      <trkpt lat="34.269874" lon="-116.65375">
        <ele>1617.296875</ele>
        <time>2018-02-10T23:01:32Z</time>
      </trkpt>
      <trkpt lat="34.269878" lon="-116.653744">
        <ele>1617.199219</ele>
        <time>2018-02-10T23:01:42Z</time>
      </trkpt>
      <trkpt lat="34.269897" lon="-116.653633">
        <ele>1617.699219</ele>
        <time>2018-02-10T23:01:43Z</time>
      </trkpt>
      <trkpt lat="34.269903" lon="-116.653617">
        <ele>1617.097656</ele>
        <time>2018-02-10T23:01:48Z</time>
      </trkpt>
      <trkpt lat="34.269944" lon="-116.653539">
        <ele>1617.000000</ele>
        <time>2018-02-10T23:01:49Z</time>
      </trkpt>
      <trkpt lat="34.269956" lon="-116.653522">
        <ele>1617.597656</ele>
        <time>2018-02-10T23:01:53Z</time>
      </trkpt>
      <trkpt lat="34.269981" lon="-116.653431">
        <ele>1618.000000</ele>
        <time>2018-02-10T23:01:54Z</time>
      </trkpt>
      <trkpt lat="34.269975" lon="-116.653407">
        <ele>1617.500000</ele>
        <time>2018-02-10T23:01:58Z</time>
      </trkpt>
      <trkpt lat="34.269952" lon="-116.653316">
        <ele>1617.597656</ele>
        <time>2018-02-10T23:01:59Z</time>
      </trkpt>
      <trkpt lat="34.269941" lon="-116.653297">
        <ele>1617.199219</ele>
        <time>2018-02-10T23:02:04Z</time>
      </trkpt>
      <trkpt lat="34.269874" lon="-116.653177">
        <ele>1617.500000</ele>
        <time>2018-02-10T23:02:07Z</time>
      </trkpt>
      <trkpt lat="34.26986" lon="-116.653161">
        <ele>1618.398438</ele>
        <time>2018-02-10T23:02:12Z</time>
      </trkpt>
      <trkpt lat="34.269831" lon="-116.653068">
        <ele>1618.398438</ele>
        <time>2018-02-10T23:02:13Z</time>
      </trkpt>
      <trkpt lat="34.269823" lon="-116.653048">
        <ele>1619.398438</ele>
        <time>2018-02-10T23:02:17Z</time>
      </trkpt>
      <trkpt lat="34.26977" lon="-116.652957">
        <ele>1619.296875</ele>
        <time>2018-02-10T23:02:18Z</time>
      </trkpt>
      <trkpt lat="34.269644" lon="-116.652715">
        <ele>1618.000000</ele>
        <time>2018-02-10T23:02:27Z</time>
      </trkpt>
      <trkpt lat="34.269629" lon="-116.652697">
        <ele>1618.296875</ele>
        <time>2018-02-10T23:02:34Z</time>
      </trkpt>
      <trkpt lat="34.269576" lon="-116.652643">
        <ele>1618.500000</ele>
        <time>2018-02-10T23:02:38Z</time>
      </trkpt>
      <trkpt lat="34.26956" lon="-116.652622">
        <ele>1619.398438</ele>
        <time>2018-02-10T23:02:49Z</time>
      </trkpt>
      <trkpt lat="34.269523" lon="-116.652544">
        <ele>1619.796875</ele>
        <time>2018-02-10T23:02:51Z</time>
      </trkpt>
      <trkpt lat="34.269472" lon="-116.652448">
        <ele>1619.000000</ele>
        <time>2018-02-10T23:03:01Z</time>
      </trkpt>
      <trkpt lat="34.269469" lon="-116.652435">
        <ele>1618.500000</ele>
        <time>2018-02-10T23:03:07Z</time>
      </trkpt>
      <trkpt lat="34.269472" lon="-116.652318">
        <ele>1618.296875</ele>
        <time>2018-02-10T23:03:08Z</time>
      </trkpt>
      <trkpt lat="34.269475" lon="-116.652285">
        <ele>1618.296875</ele>
        <time>2018-02-10T23:03:11Z</time>
      </trkpt>
      <trkpt lat="34.269458" lon="-116.652175">
        <ele>1618.296875</ele>
        <time>2018-02-10T23:03:12Z</time>
      </trkpt>
      <trkpt lat="34.269446" lon="-116.652139">
        <ele>1618.699219</ele>
        <time>2018-02-10T23:03:14Z</time>
      </trkpt>
      <trkpt lat="34.269415" lon="-116.652031">
        <ele>1619.000000</ele>
        <time>2018-02-10T23:03:16Z</time>
      </trkpt>
      <trkpt lat="34.269401" lon="-116.651997">
        <ele>1619.296875</ele>
        <time>2018-02-10T23:03:19Z</time>
      </trkpt>
      <trkpt lat="34.269363" lon="-116.651897">
        <ele>1619.296875</ele>
        <time>2018-02-10T23:03:21Z</time>
      </trkpt>
      <trkpt lat="34.269356" lon="-116.651886">
        <ele>1620.296875</ele>
        <time>2018-02-10T23:03:27Z</time>
      </trkpt>
      <trkpt lat="34.269309" lon="-116.651795">
        <ele>1620.500000</ele>
        <time>2018-02-10T23:03:28Z</time>
      </trkpt>
      <trkpt lat="34.269298" lon="-116.65177">
        <ele>1620.898438</ele>
        <time>2018-02-10T23:03:31Z</time>
      </trkpt>
      <trkpt lat="34.26927" lon="-116.651677">
        <ele>1620.898438</ele>
        <time>2018-02-10T23:03:32Z</time>
      </trkpt>
      <trkpt lat="34.269263" lon="-116.651645">
        <ele>1621.296875</ele>
        <time>2018-02-10T23:03:35Z</time>
      </trkpt>
      <trkpt lat="34.269235" lon="-116.651565">
        <ele>1621.296875</ele>
        <time>2018-02-10T23:03:36Z</time>
      </trkpt>
      <trkpt lat="34.26922" lon="-116.651542">
        <ele>1621.398438</ele>
        <time>2018-02-10T23:03:39Z</time>
      </trkpt>
      <trkpt lat="34.269174" lon="-116.651468">
        <ele>1621.398438</ele>
        <time>2018-02-10T23:03:40Z</time>
      </trkpt>
      <trkpt lat="34.269107" lon="-116.651338">
        <ele>1621.597656</ele>
        <time>2018-02-10T23:03:44Z</time>
      </trkpt>
      <trkpt lat="34.268941" lon="-116.650949">
        <ele>1621.796875</ele>
        <time>2018-02-10T23:03:53Z</time>
      </trkpt>
      <trkpt lat="34.268856" lon="-116.650708">
        <ele>1622.796875</ele>
        <time>2018-02-10T23:03:58Z</time>
      </trkpt>
      <trkpt lat="34.268843" lon="-116.650658">
        <ele>1622.699219</ele>
        <time>2018-02-10T23:04:00Z</time>
      </trkpt>
      <trkpt lat="34.26879" lon="-116.65044">
        <ele>1622.898438</ele>
        <time>2018-02-10T23:04:04Z</time>
      </trkpt>
      <trkpt lat="34.268746" lon="-116.650316">
        <ele>1622.500000</ele>
        <time>2018-02-10T23:04:08Z</time>
      </trkpt>
      <trkpt lat="34.268746" lon="-116.650295">
        <ele>1624.000000</ele>
        <time>2018-02-10T23:04:13Z</time>
      </trkpt>
      <trkpt lat="34.268747" lon="-116.650139">
        <ele>1623.898438</ele>
        <time>2018-02-10T23:04:17Z</time>
      </trkpt>
      <trkpt lat="34.26874" lon="-116.650113">
        <ele>1624.296875</ele>
        <time>2018-02-10T23:04:20Z</time>
      </trkpt>
      <trkpt lat="34.268711" lon="-116.650028">
        <ele>1624.296875</ele>
        <time>2018-02-10T23:04:21Z</time>
      </trkpt>
      <trkpt lat="34.268698" lon="-116.649999">
        <ele>1625.097656</ele>
        <time>2018-02-10T23:04:24Z</time>
      </trkpt>
      <trkpt lat="34.268657" lon="-116.649924">
        <ele>1625.500000</ele>
        <time>2018-02-10T23:04:25Z</time>
      </trkpt>
      <trkpt lat="34.268644" lon="-116.649902">
        <ele>1626.097656</ele>
        <time>2018-02-10T23:04:29Z</time>
      </trkpt>
      <trkpt lat="34.268583" lon="-116.649829">
        <ele>1625.898438</ele>
        <time>2018-02-10T23:04:30Z</time>
      </trkpt>
      <trkpt lat="34.268498" lon="-116.649704">
        <ele>1626.597656</ele>
        <time>2018-02-10T23:04:36Z</time>
      </trkpt>
      <trkpt lat="34.268487" lon="-116.649682">
        <ele>1626.597656</ele>
        <time>2018-02-10T23:04:40Z</time>
      </trkpt>
      <trkpt lat="34.26845" lon="-116.649599">
        <ele>1627.000000</ele>
        <time>2018-02-10T23:04:41Z</time>
      </trkpt>
      <trkpt lat="34.268437" lon="-116.649583">
        <ele>1626.898438</ele>
        <time>2018-02-10T23:04:46Z</time>
      </trkpt>
      <trkpt lat="34.268386" lon="-116.649514">
        <ele>1625.699219</ele>
        <time>2018-02-10T23:04:48Z</time>
      </trkpt>
      <trkpt lat="34.268361" lon="-116.649455">
        <ele>1626.398438</ele>
        <time>2018-02-10T23:08:07Z</time>
      </trkpt>
      <trkpt lat="34.268361" lon="-116.649455">
        <ele>1626.398438</ele>
        <time>2018-02-10T23:08:07Z</time>
      </trkpt>
    </trkseg>
    <trkseg>
      <trkpt lat="34.268215" lon="-116.649393">
        <ele>1626.296875</ele>
        <time>2018-02-10T23:10:23Z</time>
      </trkpt>
      <trkpt lat="34.268248" lon="-116.649407">
        <ele>1627.000000</ele>
        <time>2018-02-10T23:12:28Z</time>
      </trkpt>
      <trkpt lat="34.268248" lon="-116.649407">
        <ele>1627.000000</ele>
        <time>2018-02-10T23:12:28Z</time>
      </trkpt>
    </trkseg>
    <trkseg>
      <trkpt lat="34.267993" lon="-116.64927">
        <ele>1631.597656</ele>
        <time>2018-02-10T23:14:43Z</time>
      </trkpt>
      <trkpt lat="34.267931" lon="-116.649172">
        <ele>1628.898438</ele>
        <time>2018-02-10T23:15:00Z</time>
      </trkpt>
      <trkpt lat="34.267925" lon="-116.649167">
        <ele>1627.796875</ele>
        <time>2018-02-10T23:15:17Z</time>
      </trkpt>
      <trkpt lat="34.267846" lon="-116.649118">
        <ele>1627.796875</ele>
        <time>2018-02-10T23:15:18Z</time>
      </trkpt>
      <trkpt lat="34.267831" lon="-116.649116">
        <ele>1628.000000</ele>
        <time>2018-02-10T23:15:24Z</time>
      </trkpt>
      <trkpt lat="34.267755" lon="-116.649091">
        <ele>1628.000000</ele>
        <time>2018-02-10T23:15:26Z</time>
      </trkpt>
      <trkpt lat="34.267738" lon="-116.649083">
        <ele>1628.500000</ele>
        <time>2018-02-10T23:15:31Z</time>
      </trkpt>
      <trkpt lat="34.267666" lon="-116.649065">
        <ele>1625.898438</ele>
        <time>2018-02-10T23:15:43Z</time>
      </trkpt>
      <trkpt lat="34.267665" lon="-116.649067">
        <ele>1633.199219</ele>
        <time>2018-02-10T23:17:27Z</time>
      </trkpt>
      <trkpt lat="34.267665" lon="-116.649067">
        <ele>1633.199219</ele>
        <time>2018-02-10T23:17:27Z</time>
      </trkpt>
    </trkseg>
    <trkseg>
      <trkpt lat="34.267515" lon="-116.648955">
        <ele>1630.199219</ele>
        <time>2018-02-10T23:28:22Z</time>
      </trkpt>
      <trkpt lat="34.267432" lon="-116.648898">
        <ele>1631.097656</ele>
        <time>2018-02-10T23:28:26Z</time>
      </trkpt>
      <trkpt lat="34.267409" lon="-116.648871">
        <ele>1630.699219</ele>
        <time>2018-02-10T23:28:28Z</time>
      </trkpt>
      <trkpt lat="34.267367" lon="-116.648799">
        <ele>1630.597656</ele>
        <time>2018-02-10T23:28:29Z</time>
      </trkpt>
      <trkpt lat="34.266936" lon="-116.648028">
        <ele>1631.597656</ele>
        <time>2018-02-10T23:28:43Z</time>
      </trkpt>
      <trkpt lat="34.266811" lon="-116.647841">
        <ele>1631.699219</ele>
        <time>2018-02-10T23:28:51Z</time>
      </trkpt>
      <trkpt lat="34.266804" lon="-116.647819">
        <ele>1632.097656</ele>
        <time>2018-02-10T23:28:55Z</time>
      </trkpt>
      <trkpt lat="34.266796" lon="-116.647711">
        <ele>1632.500000</ele>
        <time>2018-02-10T23:28:56Z</time>
      </trkpt>
      <trkpt lat="34.266786" lon="-116.647676">
        <ele>1632.296875</ele>
        <time>2018-02-10T23:28:58Z</time>
      </trkpt>
      <trkpt lat="34.266751" lon="-116.647593">
        <ele>1632.597656</ele>
        <time>2018-02-10T23:28:59Z</time>
      </trkpt>
      <trkpt lat="34.266725" lon="-116.647552">
        <ele>1633.000000</ele>
        <time>2018-02-10T23:29:01Z</time>
      </trkpt>
      <trkpt lat="34.26666" lon="-116.647482">
        <ele>1633.500000</ele>
        <time>2018-02-10T23:29:02Z</time>
      </trkpt>
      <trkpt lat="34.266623" lon="-116.647451">
        <ele>1633.500000</ele>
        <time>2018-02-10T23:29:04Z</time>
      </trkpt>
      <trkpt lat="34.266542" lon="-116.6474">
        <ele>1633.699219</ele>
        <time>2018-02-10T23:29:05Z</time>
      </trkpt>
      <trkpt lat="34.266499" lon="-116.647384">
        <ele>1633.898438</ele>
        <time>2018-02-10T23:29:07Z</time>
      </trkpt>
      <trkpt lat="34.266411" lon="-116.647367">
        <ele>1634.097656</ele>
        <time>2018-02-10T23:29:08Z</time>
      </trkpt>
      <trkpt lat="34.266368" lon="-116.647367">
        <ele>1634.398438</ele>
        <time>2018-02-10T23:29:10Z</time>
      </trkpt>
      <trkpt lat="34.266282" lon="-116.647388">
        <ele>1634.597656</ele>
        <time>2018-02-10T23:29:11Z</time>
      </trkpt>
      <trkpt lat="34.266241" lon="-116.647405">
        <ele>1634.898438</ele>
        <time>2018-02-10T23:29:13Z</time>
      </trkpt>
      <trkpt lat="34.266131" lon="-116.647459">
        <ele>1635.699219</ele>
        <time>2018-02-10T23:29:15Z</time>
      </trkpt>
      <trkpt lat="34.266099" lon="-116.64747">
        <ele>1636.296875</ele>
        <time>2018-02-10T23:29:18Z</time>
      </trkpt>
      <trkpt lat="34.266022" lon="-116.647467">
        <ele>1636.398438</ele>
        <time>2018-02-10T23:29:19Z</time>
      </trkpt>
      <trkpt lat="34.265993" lon="-116.647464">
        <ele>1636.597656</ele>
        <time>2018-02-10T23:29:21Z</time>
      </trkpt>
      <trkpt lat="34.265929" lon="-116.647437">
        <ele>1636.500000</ele>
        <time>2018-02-10T23:29:22Z</time>
      </trkpt>
      <trkpt lat="34.265896" lon="-116.647409">
        <ele>1636.796875</ele>
        <time>2018-02-10T23:29:24Z</time>
      </trkpt>
      <trkpt lat="34.265837" lon="-116.64732">
        <ele>1637.097656</ele>
        <time>2018-02-10T23:29:25Z</time>
      </trkpt>
      <trkpt lat="34.265812" lon="-116.647261">
        <ele>1636.898438</ele>
        <time>2018-02-10T23:29:26Z</time>
      </trkpt>
      <trkpt lat="34.265739" lon="-116.647067">
        <ele>1636.699219</ele>
        <time>2018-02-10T23:29:29Z</time>
      </trkpt>
      <trkpt lat="34.265712" lon="-116.646985">
        <ele>1636.898438</ele>
        <time>2018-02-10T23:29:30Z</time>
      </trkpt>
      <trkpt lat="34.265686" lon="-116.646892">
        <ele>1637.000000</ele>
        <time>2018-02-10T23:29:31Z</time>
      </trkpt>
      <trkpt lat="34.265518" lon="-116.6462">
        <ele>1637.898438</ele>
        <time>2018-02-10T23:29:37Z</time>
      </trkpt>
      <trkpt lat="34.265468" lon="-116.64609">
        <ele>1638.097656</ele>
        <time>2018-02-10T23:29:38Z</time>
      </trkpt>
      <trkpt lat="34.265407" lon="-116.64599">
        <ele>1638.398438</ele>
        <time>2018-02-10T23:29:39Z</time>
      </trkpt>
      <trkpt lat="34.265336" lon="-116.645901">
        <ele>1638.898438</ele>
        <time>2018-02-10T23:29:40Z</time>
      </trkpt>
      <trkpt lat="34.265261" lon="-116.645818">
        <ele>1639.199219</ele>
        <time>2018-02-10T23:29:41Z</time>
      </trkpt>
      <trkpt lat="34.265024" lon="-116.645594">
        <ele>1639.898438</ele>
        <time>2018-02-10T23:29:44Z</time>
      </trkpt>
      <trkpt lat="34.264713" lon="-116.645335">
        <ele>1640.597656</ele>
        <time>2018-02-10T23:29:48Z</time>
      </trkpt>
      <trkpt lat="34.264341" lon="-116.645052">
        <ele>1641.500000</ele>
        <time>2018-02-10T23:29:55Z</time>
      </trkpt>
      <trkpt lat="34.264307" lon="-116.645009">
        <ele>1641.699219</ele>
        <time>2018-02-10T23:29:56Z</time>
      </trkpt>
      <trkpt lat="34.264283" lon="-116.644964">
        <ele>1642.000000</ele>
        <time>2018-02-10T23:29:58Z</time>
      </trkpt>
      <trkpt lat="34.264207" lon="-116.644806">
        <ele>1642.296875</ele>
        <time>2018-02-10T23:30:03Z</time>
      </trkpt>
      <trkpt lat="34.264195" lon="-116.644792">
        <ele>1642.500000</ele>
        <time>2018-02-10T23:30:06Z</time>
      </trkpt>
      <trkpt lat="34.264134" lon="-116.644741">
        <ele>1642.398438</ele>
        <time>2018-02-10T23:30:07Z</time>
      </trkpt>
      <trkpt lat="34.264103" lon="-116.644722">
        <ele>1642.796875</ele>
        <time>2018-02-10T23:30:09Z</time>
      </trkpt>
      <trkpt lat="34.264025" lon="-116.644688">
        <ele>1643.000000</ele>
        <time>2018-02-10T23:30:10Z</time>
      </trkpt>
      <trkpt lat="34.263892" lon="-116.644628">
        <ele>1644.097656</ele>
        <time>2018-02-10T23:30:13Z</time>
      </trkpt>
      <trkpt lat="34.26385" lon="-116.6446">
        <ele>1644.398438</ele>
        <time>2018-02-10T23:30:14Z</time>
      </trkpt>
      <trkpt lat="34.263814" lon="-116.644566">
        <ele>1644.398438</ele>
        <time>2018-02-10T23:30:15Z</time>
      </trkpt>
      <trkpt lat="34.26378" lon="-116.644531">
        <ele>1644.796875</ele>
        <time>2018-02-10T23:30:17Z</time>
      </trkpt>
      <trkpt lat="34.26372" lon="-116.644463">
        <ele>1644.296875</ele>
        <time>2018-02-10T23:30:18Z</time>
      </trkpt>
      <trkpt lat="34.263694" lon="-116.64443">
        <ele>1644.296875</ele>
        <time>2018-02-10T23:30:20Z</time>
      </trkpt>
      <trkpt lat="34.26361" lon="-116.644306">
        <ele>1643.296875</ele>
        <time>2018-02-10T23:30:25Z</time>
      </trkpt>
      <trkpt lat="34.263562" lon="-116.644212">
        <ele>1643.699219</ele>
        <time>2018-02-10T23:30:32Z</time>
      </trkpt>
      <trkpt lat="34.263555" lon="-116.64419">
        <ele>1644.398438</ele>
        <time>2018-02-10T23:30:35Z</time>
      </trkpt>
      <trkpt lat="34.263533" lon="-116.644101">
        <ele>1644.398438</ele>
        <time>2018-02-10T23:30:36Z</time>
      </trkpt>
      <trkpt lat="34.263531" lon="-116.644066">
        <ele>1644.199219</ele>
        <time>2018-02-10T23:30:38Z</time>
      </trkpt>
      <trkpt lat="34.263526" lon="-116.643988">
        <ele>1643.898438</ele>
        <time>2018-02-10T23:30:39Z</time>
      </trkpt>
      <trkpt lat="34.263526" lon="-116.643944">
        <ele>1643.500000</ele>
        <time>2018-02-10T23:30:41Z</time>
      </trkpt>
      <trkpt lat="34.26354" lon="-116.643846">
        <ele>1643.500000</ele>
        <time>2018-02-10T23:30:42Z</time>
      </trkpt>
      <trkpt lat="34.26355" lon="-116.643796">
        <ele>1643.796875</ele>
        <time>2018-02-10T23:30:44Z</time>
      </trkpt>
      <trkpt lat="34.263542" lon="-116.643693">
        <ele>1644.296875</ele>
        <time>2018-02-10T23:30:45Z</time>
      </trkpt>
      <trkpt lat="34.263524" lon="-116.643642">
        <ele>1644.296875</ele>
        <time>2018-02-10T23:30:47Z</time>
      </trkpt>
      <trkpt lat="34.263476" lon="-116.643553">
        <ele>1644.398438</ele>
        <time>2018-02-10T23:30:48Z</time>
      </trkpt>
      <trkpt lat="34.263444" lon="-116.643518">
        <ele>1645.000000</ele>
        <time>2018-02-10T23:30:50Z</time>
      </trkpt>
      <trkpt lat="34.263371" lon="-116.643465">
        <ele>1645.097656</ele>
        <time>2018-02-10T23:30:51Z</time>
      </trkpt>
      <trkpt lat="34.263329" lon="-116.643448">
        <ele>1645.296875</ele>
        <time>2018-02-10T23:30:53Z</time>
      </trkpt>
      <trkpt lat="34.263124" lon="-116.643373">
        <ele>1646.500000</ele>
        <time>2018-02-10T23:30:57Z</time>
      </trkpt>
      <trkpt lat="34.262956" lon="-116.643332">
        <ele>1647.000000</ele>
        <time>2018-02-10T23:31:04Z</time>
      </trkpt>
      <trkpt lat="34.262823" lon="-116.643261">
        <ele>1646.898438</ele>
        <time>2018-02-10T23:31:13Z</time>
      </trkpt>
      <trkpt lat="34.262808" lon="-116.643257">
        <ele>1647.898438</ele>
        <time>2018-02-10T23:31:19Z</time>
      </trkpt>
      <trkpt lat="34.262725" lon="-116.643246">
        <ele>1647.898438</ele>
        <time>2018-02-10T23:31:20Z</time>
      </trkpt>
      <trkpt lat="34.262707" lon="-116.643237">
        <ele>1647.898438</ele>
        <time>2018-02-10T23:31:25Z</time>
      </trkpt>
      <trkpt lat="34.262633" lon="-116.643241">
        <ele>1647.898438</ele>
        <time>2018-02-10T23:31:26Z</time>
      </trkpt>
      <trkpt lat="34.262613" lon="-116.643242">
        <ele>1648.097656</ele>
        <time>2018-02-10T23:31:29Z</time>
      </trkpt>
      <trkpt lat="34.262535" lon="-116.643231">
        <ele>1648.199219</ele>
        <time>2018-02-10T23:31:30Z</time>
      </trkpt>
      <trkpt lat="34.26251" lon="-116.643223">
        <ele>1648.796875</ele>
        <time>2018-02-10T23:31:33Z</time>
      </trkpt>
      <trkpt lat="34.262438" lon="-116.643211">
        <ele>1648.699219</ele>
        <time>2018-02-10T23:31:34Z</time>
      </trkpt>
      <trkpt lat="34.262413" lon="-116.643206">
        <ele>1649.199219</ele>
        <time>2018-02-10T23:31:37Z</time>
      </trkpt>
      <trkpt lat="34.262344" lon="-116.643184">
        <ele>1649.097656</ele>
        <time>2018-02-10T23:31:38Z</time>
      </trkpt>
      <trkpt lat="34.262323" lon="-116.643175">
        <ele>1649.296875</ele>
        <time>2018-02-10T23:31:42Z</time>
      </trkpt>
      <trkpt lat="34.262256" lon="-116.643125">
        <ele>1649.500000</ele>
        <time>2018-02-10T23:31:43Z</time>
      </trkpt>
      <trkpt lat="34.262243" lon="-116.643112">
        <ele>1648.796875</ele>
        <time>2018-02-10T23:31:49Z</time>
      </trkpt>
      <trkpt lat="34.262157" lon="-116.643023">
        <ele>1648.597656</ele>
        <time>2018-02-10T23:31:52Z</time>
      </trkpt>
      <trkpt lat="34.262096" lon="-116.642931">
        <ele>1649.000000</ele>
        <time>2018-02-10T23:31:56Z</time>
      </trkpt>
      <trkpt lat="34.262084" lon="-116.642905">
        <ele>1648.597656</ele>
        <time>2018-02-10T23:31:59Z</time>
      </trkpt>
      <trkpt lat="34.262047" lon="-116.642819">
        <ele>1648.597656</ele>
        <time>2018-02-10T23:32:00Z</time>
      </trkpt>
      <trkpt lat="34.262031" lon="-116.642791">
        <ele>1648.597656</ele>
        <time>2018-02-10T23:32:03Z</time>
      </trkpt>
      <trkpt lat="34.261977" lon="-116.642728">
        <ele>1648.796875</ele>
        <time>2018-02-10T23:32:04Z</time>
      </trkpt>
      <trkpt lat="34.261962" lon="-116.642708">
        <ele>1649.699219</ele>
        <time>2018-02-10T23:32:08Z</time>
      </trkpt>
      <trkpt lat="34.261919" lon="-116.642632">
        <ele>1650.000000</ele>
        <time>2018-02-10T23:32:09Z</time>
      </trkpt>
      <trkpt lat="34.261914" lon="-116.642614">
        <ele>1650.597656</ele>
        <time>2018-02-10T23:32:14Z</time>
      </trkpt>
      <trkpt lat="34.261865" lon="-116.64253">
        <ele>1650.597656</ele>
        <time>2018-02-10T23:32:15Z</time>
      </trkpt>
      <trkpt lat="34.261845" lon="-116.642518">
        <ele>1650.796875</ele>
        <time>2018-02-10T23:32:18Z</time>
      </trkpt>
      <trkpt lat="34.261768" lon="-116.642489">
        <ele>1650.796875</ele>
        <time>2018-02-10T23:32:19Z</time>
      </trkpt>
      <trkpt lat="34.261744" lon="-116.642482">
        <ele>1651.500000</ele>
        <time>2018-02-10T23:32:24Z</time>
      </trkpt>
      <trkpt lat="34.261679" lon="-116.642533">
        <ele>1651.699219</ele>
        <time>2018-02-10T23:32:25Z</time>
      </trkpt>
      <trkpt lat="34.261671" lon="-116.642554">
        <ele>1652.199219</ele>
        <time>2018-02-10T23:32:29Z</time>
      </trkpt>
      <trkpt lat="34.26165" lon="-116.642638">
        <ele>1651.500000</ele>
        <time>2018-02-10T23:32:38Z</time>
      </trkpt>
      <trkpt lat="34.26165" lon="-116.642638">
        <ele>1651.500000</ele>
        <time>2018-02-10T23:32:38Z</time>
      </trkpt>
    </trkseg>
</trk>
</gpx>